sensor_id;sensor_type;location;lat;lon;timestamp;P1;durP1;ratioP1;P2;durP2;ratioP2
2706;SDS011;7819;48.046;7.642;2022-12-07T00:01:31;13.63;;;10.10;;
2706;SDS011;7819;48.046;7.642;2022-12-07T00:03:58;12.30;;;9.10;;
2706;SDS011;7819;48.046;7.642;2022-12-07T00:06:29;14.77;;;10.50;;
2706;SDS011;7819;48.046;7.642;2022-12-07T00:08:54;16.33;;;10.57;;
2706;SDS011;7819;48.046;7.642;2022-12-07T00:11:20;16.20;;;10.60;;
2706;SDS011;7819;48.046;7.642;2022-12-07T00:13:46;16.50;;;9.97;;
2706;SDS011;7819;48.046;7.642;2022-12-07T00:16:13;15.47;;;9.90;;
2706;SDS011;7819;48.046;7.642;2022-12-07T00:18:39;13.90;;;9.20;;
2706;SDS011;7819;48.046;7.642;2022-12-07T00:21:11;17.23;;;9.73;;
2706;SDS011;7819;48.046;7.642;2022-12-07T00:23:37;15.17;;;10.17;;
2706;SDS011;7819;48.046;7.642;2022-12-07T00:26:03;13.03;;;9.50;;
2706;SDS011;7819;48.046;7.642;2022-12-07T00:28:28;13.27;;;9.07;;
2706;SDS011;7819;48.046;7.642;2022-12-07T00:30:59;16.03;;;9.30;;
2706;SDS011;7819;48.046;7.642;2022-12-07T00:33:24;16.83;;;10.03;;
2706;SDS011;7819;48.046;7.642;2022-12-07T00:35:54;14.20;;;9.73;;
2706;SDS011;7819;48.046;7.642;2022-12-07T00:38:19;13.73;;;9.23;;
2706;SDS011;7819;48.046;7.642;2022-12-07T00:40:53;14.27;;;9.13;;
2706;SDS011;7819;48.046;7.642;2022-12-07T00:43:18;11.60;;;8.67;;
2706;SDS011;7819;48.046;7.642;2022-12-07T00:45:43;12.13;;;8.50;;
2706;SDS011;7819;48.046;7.642;2022-12-07T00:48:08;14.27;;;9.53;;
2706;SDS011;7819;48.046;7.642;2022-12-07T00:50:33;11.80;;;8.27;;
2706;SDS011;7819;48.046;7.642;2022-12-07T00:52:58;12.73;;;8.93;;
2706;SDS011;7819;48.046;7.642;2022-12-07T00:55:24;13.53;;;8.93;;
2706;SDS011;7819;48.046;7.642;2022-12-07T00:57:49;16.27;;;9.47;;
2706;SDS011;7819;48.046;7.642;2022-12-07T01:00:14;13.93;;;8.10;;
2706;SDS011;7819;48.046;7.642;2022-12-07T01:02:39;10.87;;;8.03;;
2706;SDS011;7819;48.046;7.642;2022-12-07T01:05:05;11.33;;;8.13;;
2706;SDS011;7819;48.046;7.642;2022-12-07T01:07:30;13.97;;;8.73;;
2706;SDS011;7819;48.046;7.642;2022-12-07T01:09:55;13.50;;;8.23;;
2706;SDS011;7819;48.046;7.642;2022-12-07T01:12:20;12.80;;;9.57;;
2706;SDS011;7819;48.046;7.642;2022-12-07T01:14:45;10.10;;;7.97;;
2706;SDS011;7819;48.046;7.642;2022-12-07T01:17:11;12.80;;;9.63;;
2706;SDS011;7819;48.046;7.642;2022-12-07T01:19:36;12.17;;;8.50;;
2706;SDS011;7819;48.046;7.642;2022-12-07T01:22:01;12.90;;;9.93;;
2706;SDS011;7819;48.046;7.642;2022-12-07T01:24:26;15.30;;;10.70;;
2706;SDS011;7819;48.046;7.642;2022-12-07T01:26:51;13.87;;;9.27;;
2706;SDS011;7819;48.046;7.642;2022-12-07T01:29:16;13.33;;;9.47;;
2706;SDS011;7819;48.046;7.642;2022-12-07T01:31:41;13.70;;;9.23;;
2706;SDS011;7819;48.046;7.642;2022-12-07T01:34:07;12.73;;;8.63;;
2706;SDS011;7819;48.046;7.642;2022-12-07T01:36:34;12.00;;;9.13;;
2706;SDS011;7819;48.046;7.642;2022-12-07T01:39:00;12.80;;;9.90;;
2706;SDS011;7819;48.046;7.642;2022-12-07T01:41:27;11.90;;;8.60;;
2706;SDS011;7819;48.046;7.642;2022-12-07T01:44:09;14.83;;;9.80;;
2706;SDS011;7819;48.046;7.642;2022-12-07T01:46:35;14.37;;;9.27;;
2706;SDS011;7819;48.046;7.642;2022-12-07T01:49:00;13.67;;;9.00;;
2706;SDS011;7819;48.046;7.642;2022-12-07T01:51:26;11.57;;;8.97;;
2706;SDS011;7819;48.046;7.642;2022-12-07T01:53:51;11.30;;;8.23;;
2706;SDS011;7819;48.046;7.642;2022-12-07T01:56:18;13.97;;;9.77;;
2706;SDS011;7819;48.046;7.642;2022-12-07T01:58:44;10.40;;;6.93;;
2706;SDS011;7819;48.046;7.642;2022-12-07T02:01:09;11.50;;;7.17;;
2706;SDS011;7819;48.046;7.642;2022-12-07T02:03:36;10.57;;;6.63;;
2706;SDS011;7819;48.046;7.642;2022-12-07T02:06:02;10.10;;;6.23;;
2706;SDS011;7819;48.046;7.642;2022-12-07T02:08:29;11.67;;;7.40;;
2706;SDS011;7819;48.046;7.642;2022-12-07T02:10:54;11.73;;;8.50;;
2706;SDS011;7819;48.046;7.642;2022-12-07T02:13:21;12.97;;;8.10;;
2706;SDS011;7819;48.046;7.642;2022-12-07T02:31:17;9.70;;;6.50;;
2706;SDS011;7819;48.046;7.642;2022-12-07T02:33:49;9.27;;;6.20;;
2706;SDS011;7819;48.046;7.642;2022-12-07T02:36:25;8.40;;;5.63;;
2706;SDS011;7819;48.046;7.642;2022-12-07T02:41:27;9.33;;;6.10;;
2706;SDS011;7819;48.046;7.642;2022-12-07T02:43:55;8.53;;;6.40;;
2706;SDS011;7819;48.046;7.642;2022-12-07T02:46:22;13.00;;;6.73;;
2706;SDS011;7819;48.046;7.642;2022-12-07T02:48:48;11.33;;;6.20;;
2706;SDS011;7819;48.046;7.642;2022-12-07T02:51:14;9.73;;;6.83;;
2706;SDS011;7819;48.046;7.642;2022-12-07T02:53:42;9.77;;;6.37;;
2706;SDS011;7819;48.046;7.642;2022-12-07T03:01:04;9.33;;;6.43;;
2706;SDS011;7819;48.046;7.642;2022-12-07T03:03:33;9.47;;;6.57;;
2706;SDS011;7819;48.046;7.642;2022-12-07T03:06:06;9.50;;;7.57;;
2706;SDS011;7819;48.046;7.642;2022-12-07T03:08:38;11.43;;;6.10;;
2706;SDS011;7819;48.046;7.642;2022-12-07T03:11:07;8.63;;;6.07;;
2706;SDS011;7819;48.046;7.642;2022-12-07T03:16:02;12.00;;;6.77;;
2706;SDS011;7819;48.046;7.642;2022-12-07T03:18:28;12.13;;;6.87;;
2706;SDS011;7819;48.046;7.642;2022-12-07T03:20:55;7.90;;;5.70;;
2706;SDS011;7819;48.046;7.642;2022-12-07T03:23:21;11.73;;;6.90;;
2706;SDS011;7819;48.046;7.642;2022-12-07T03:25:49;11.37;;;7.00;;
2706;SDS011;7819;48.046;7.642;2022-12-07T03:28:16;9.30;;;5.83;;
2706;SDS011;7819;48.046;7.642;2022-12-07T03:30:47;10.67;;;6.70;;
2706;SDS011;7819;48.046;7.642;2022-12-07T03:35:47;9.90;;;6.23;;
2706;SDS011;7819;48.046;7.642;2022-12-07T03:40:42;10.03;;;7.17;;
2706;SDS011;7819;48.046;7.642;2022-12-07T03:43:09;11.23;;;7.03;;
2706;SDS011;7819;48.046;7.642;2022-12-07T03:53:17;10.10;;;6.60;;
2706;SDS011;7819;48.046;7.642;2022-12-07T03:55:43;10.73;;;7.90;;
2706;SDS011;7819;48.046;7.642;2022-12-07T03:58:11;8.90;;;7.50;;
2706;SDS011;7819;48.046;7.642;2022-12-07T04:00:37;11.17;;;6.73;;
2706;SDS011;7819;48.046;7.642;2022-12-07T04:03:02;10.70;;;7.47;;
2706;SDS011;7819;48.046;7.642;2022-12-07T04:05:27;13.90;;;8.70;;
2706;SDS011;7819;48.046;7.642;2022-12-07T04:07:53;11.57;;;8.40;;
2706;SDS011;7819;48.046;7.642;2022-12-07T04:10:18;12.20;;;8.37;;
2706;SDS011;7819;48.046;7.642;2022-12-07T04:12:43;13.70;;;8.70;;
2706;SDS011;7819;48.046;7.642;2022-12-07T04:15:09;14.00;;;8.23;;
2706;SDS011;7819;48.046;7.642;2022-12-07T04:17:34;17.27;;;8.93;;
2706;SDS011;7819;48.046;7.642;2022-12-07T04:19:59;14.60;;;8.60;;
2706;SDS011;7819;48.046;7.642;2022-12-07T04:22:24;13.57;;;9.70;;
2706;SDS011;7819;48.046;7.642;2022-12-07T04:24:50;14.63;;;9.37;;
2706;SDS011;7819;48.046;7.642;2022-12-07T04:27:15;12.67;;;9.03;;
2706;SDS011;7819;48.046;7.642;2022-12-07T04:29:40;14.00;;;8.87;;
2706;SDS011;7819;48.046;7.642;2022-12-07T04:32:05;16.17;;;10.60;;
2706;SDS011;7819;48.046;7.642;2022-12-07T04:34:30;19.17;;;10.43;;
2706;SDS011;7819;48.046;7.642;2022-12-07T04:36:55;16.23;;;10.00;;
2706;SDS011;7819;48.046;7.642;2022-12-07T04:41:46;16.67;;;9.90;;
2706;SDS011;7819;48.046;7.642;2022-12-07T04:44:11;14.07;;;10.10;;
2706;SDS011;7819;48.046;7.642;2022-12-07T04:46:39;15.13;;;9.63;;
2706;SDS011;7819;48.046;7.642;2022-12-07T04:49:04;17.60;;;9.23;;
2706;SDS011;7819;48.046;7.642;2022-12-07T04:51:29;13.83;;;9.47;;
2706;SDS011;7819;48.046;7.642;2022-12-07T04:53:55;13.60;;;9.40;;
2706;SDS011;7819;48.046;7.642;2022-12-07T04:56:20;13.13;;;10.37;;
2706;SDS011;7819;48.046;7.642;2022-12-07T04:58:47;14.00;;;8.67;;
2706;SDS011;7819;48.046;7.642;2022-12-07T05:01:12;16.87;;;10.60;;
2706;SDS011;7819;48.046;7.642;2022-12-07T05:03:38;9.93;;;8.17;;
2706;SDS011;7819;48.046;7.642;2022-12-07T05:06:03;12.07;;;7.83;;
2706;SDS011;7819;48.046;7.642;2022-12-07T05:08:28;11.90;;;8.10;;
2706;SDS011;7819;48.046;7.642;2022-12-07T05:10:54;10.57;;;7.70;;
2706;SDS011;7819;48.046;7.642;2022-12-07T05:13:19;12.87;;;8.10;;
2706;SDS011;7819;48.046;7.642;2022-12-07T05:15:44;14.33;;;8.53;;
2706;SDS011;7819;48.046;7.642;2022-12-07T05:18:11;11.40;;;8.13;;
2706;SDS011;7819;48.046;7.642;2022-12-07T05:20:37;10.80;;;8.00;;
2706;SDS011;7819;48.046;7.642;2022-12-07T05:23:03;9.50;;;7.40;;
2706;SDS011;7819;48.046;7.642;2022-12-07T05:25:28;9.80;;;8.20;;
2706;SDS011;7819;48.046;7.642;2022-12-07T05:27:54;11.00;;;7.57;;
2706;SDS011;7819;48.046;7.642;2022-12-07T05:30:19;12.20;;;8.03;;
2706;SDS011;7819;48.046;7.642;2022-12-07T05:32:44;11.70;;;8.43;;
2706;SDS011;7819;48.046;7.642;2022-12-07T05:35:10;12.20;;;8.60;;
2706;SDS011;7819;48.046;7.642;2022-12-07T05:37:35;13.80;;;8.87;;
2706;SDS011;7819;48.046;7.642;2022-12-07T05:40:00;13.03;;;9.97;;
2706;SDS011;7819;48.046;7.642;2022-12-07T05:42:25;11.73;;;9.50;;
2706;SDS011;7819;48.046;7.642;2022-12-07T05:44:50;10.33;;;8.23;;
2706;SDS011;7819;48.046;7.642;2022-12-07T05:47:15;11.87;;;8.40;;
2706;SDS011;7819;48.046;7.642;2022-12-07T05:49:41;12.37;;;8.73;;
2706;SDS011;7819;48.046;7.642;2022-12-07T05:52:06;11.93;;;8.60;;
2706;SDS011;7819;48.046;7.642;2022-12-07T05:54:31;11.23;;;7.40;;
2706;SDS011;7819;48.046;7.642;2022-12-07T05:56:56;12.73;;;9.10;;
2706;SDS011;7819;48.046;7.642;2022-12-07T05:59:22;14.97;;;8.70;;
2706;SDS011;7819;48.046;7.642;2022-12-07T06:01:47;11.10;;;8.03;;
2706;SDS011;7819;48.046;7.642;2022-12-07T06:04:13;17.50;;;9.50;;
2706;SDS011;7819;48.046;7.642;2022-12-07T06:06:38;12.03;;;7.87;;
2706;SDS011;7819;48.046;7.642;2022-12-07T06:09:03;13.17;;;8.83;;
2706;SDS011;7819;48.046;7.642;2022-12-07T06:11:28;14.20;;;9.17;;
2706;SDS011;7819;48.046;7.642;2022-12-07T06:14:13;12.20;;;8.30;;
2706;SDS011;7819;48.046;7.642;2022-12-07T06:16:38;13.77;;;9.30;;
2706;SDS011;7819;48.046;7.642;2022-12-07T06:19:03;13.20;;;8.57;;
2706;SDS011;7819;48.046;7.642;2022-12-07T06:21:28;12.53;;;9.60;;
2706;SDS011;7819;48.046;7.642;2022-12-07T06:23:54;15.73;;;10.20;;
2706;SDS011;7819;48.046;7.642;2022-12-07T06:26:19;14.97;;;10.90;;
2706;SDS011;7819;48.046;7.642;2022-12-07T06:28:44;23.97;;;16.00;;
2706;SDS011;7819;48.046;7.642;2022-12-07T06:31:10;58.23;;;34.83;;
2706;SDS011;7819;48.046;7.642;2022-12-07T06:33:35;28.23;;;18.47;;
2706;SDS011;7819;48.046;7.642;2022-12-07T06:36:00;19.77;;;13.13;;
2706;SDS011;7819;48.046;7.642;2022-12-07T06:38:25;14.90;;;11.43;;
2706;SDS011;7819;48.046;7.642;2022-12-07T06:40:50;12.63;;;9.27;;
2706;SDS011;7819;48.046;7.642;2022-12-07T06:43:16;10.23;;;8.03;;
2706;SDS011;7819;48.046;7.642;2022-12-07T06:45:41;11.73;;;9.87;;
2706;SDS011;7819;48.046;7.642;2022-12-07T06:48:06;18.57;;;11.10;;
2706;SDS011;7819;48.046;7.642;2022-12-07T06:50:32;17.17;;;10.80;;
2706;SDS011;7819;48.046;7.642;2022-12-07T06:52:57;23.93;;;15.43;;
2706;SDS011;7819;48.046;7.642;2022-12-07T06:55:22;23.10;;;17.30;;
2706;SDS011;7819;48.046;7.642;2022-12-07T06:57:47;26.90;;;17.17;;
2706;SDS011;7819;48.046;7.642;2022-12-07T07:00:13;29.73;;;19.23;;
2706;SDS011;7819;48.046;7.642;2022-12-07T07:02:38;22.90;;;15.80;;
2706;SDS011;7819;48.046;7.642;2022-12-07T07:05:03;22.80;;;16.17;;
2706;SDS011;7819;48.046;7.642;2022-12-07T07:07:28;21.97;;;15.50;;
2706;SDS011;7819;48.046;7.642;2022-12-07T07:09:54;22.17;;;14.83;;
2706;SDS011;7819;48.046;7.642;2022-12-07T07:12:19;19.97;;;13.93;;
2706;SDS011;7819;48.046;7.642;2022-12-07T07:14:44;11.70;;;8.10;;
2706;SDS011;7819;48.046;7.642;2022-12-07T07:17:10;9.10;;;6.80;;
2706;SDS011;7819;48.046;7.642;2022-12-07T07:19:35;11.47;;;7.43;;
2706;SDS011;7819;48.046;7.642;2022-12-07T07:22:02;12.10;;;6.97;;
2706;SDS011;7819;48.046;7.642;2022-12-07T07:24:27;11.03;;;7.47;;
2706;SDS011;7819;48.046;7.642;2022-12-07T07:26:52;9.33;;;7.30;;
2706;SDS011;7819;48.046;7.642;2022-12-07T07:29:17;11.57;;;7.37;;
2706;SDS011;7819;48.046;7.642;2022-12-07T07:31:43;11.90;;;8.03;;
2706;SDS011;7819;48.046;7.642;2022-12-07T07:34:08;10.93;;;8.07;;
2706;SDS011;7819;48.046;7.642;2022-12-07T07:36:33;11.50;;;7.87;;
2706;SDS011;7819;48.046;7.642;2022-12-07T07:38:58;15.47;;;10.00;;
2706;SDS011;7819;48.046;7.642;2022-12-07T07:41:23;17.37;;;12.40;;
2706;SDS011;7819;48.046;7.642;2022-12-07T07:43:48;15.20;;;10.90;;
2706;SDS011;7819;48.046;7.642;2022-12-07T07:46:14;15.37;;;11.30;;
2706;SDS011;7819;48.046;7.642;2022-12-07T07:48:39;19.60;;;12.70;;
2706;SDS011;7819;48.046;7.642;2022-12-07T07:51:05;18.70;;;12.77;;
2706;SDS011;7819;48.046;7.642;2022-12-07T07:53:30;13.87;;;10.73;;
2706;SDS011;7819;48.046;7.642;2022-12-07T07:55:56;16.80;;;11.47;;
2706;SDS011;7819;48.046;7.642;2022-12-07T07:58:21;16.83;;;12.67;;
2706;SDS011;7819;48.046;7.642;2022-12-07T08:00:46;12.90;;;9.43;;
2706;SDS011;7819;48.046;7.642;2022-12-07T08:03:12;18.70;;;12.00;;
2706;SDS011;7819;48.046;7.642;2022-12-07T08:05:37;14.10;;;10.73;;
2706;SDS011;7819;48.046;7.642;2022-12-07T08:08:03;20.17;;;12.10;;
2706;SDS011;7819;48.046;7.642;2022-12-07T08:10:28;16.50;;;10.40;;
2706;SDS011;7819;48.046;7.642;2022-12-07T08:12:53;18.10;;;11.50;;
2706;SDS011;7819;48.046;7.642;2022-12-07T08:15:38;19.80;;;13.30;;
2706;SDS011;7819;48.046;7.642;2022-12-07T08:18:04;16.47;;;10.70;;
2706;SDS011;7819;48.046;7.642;2022-12-07T08:20:30;21.13;;;16.20;;
2706;SDS011;7819;48.046;7.642;2022-12-07T08:22:55;25.57;;;16.20;;
2706;SDS011;7819;48.046;7.642;2022-12-07T08:25:20;15.80;;;13.10;;
2706;SDS011;7819;48.046;7.642;2022-12-07T08:27:47;15.00;;;11.10;;
2706;SDS011;7819;48.046;7.642;2022-12-07T08:30:12;17.00;;;12.77;;
2706;SDS011;7819;48.046;7.642;2022-12-07T08:32:37;18.20;;;12.93;;
2706;SDS011;7819;48.046;7.642;2022-12-07T08:35:03;18.77;;;12.47;;
2706;SDS011;7819;48.046;7.642;2022-12-07T08:37:28;15.00;;;10.70;;
2706;SDS011;7819;48.046;7.642;2022-12-07T08:39:53;16.40;;;10.00;;
2706;SDS011;7819;48.046;7.642;2022-12-07T08:42:19;16.23;;;11.37;;
2706;SDS011;7819;48.046;7.642;2022-12-07T08:44:45;19.60;;;12.23;;
2706;SDS011;7819;48.046;7.642;2022-12-07T08:47:10;21.10;;;13.00;;
2706;SDS011;7819;48.046;7.642;2022-12-07T08:49:37;14.73;;;11.20;;
2706;SDS011;7819;48.046;7.642;2022-12-07T08:52:03;17.53;;;10.23;;
2706;SDS011;7819;48.046;7.642;2022-12-07T08:54:29;17.87;;;11.10;;
2706;SDS011;7819;48.046;7.642;2022-12-07T08:56:54;18.57;;;13.30;;
2706;SDS011;7819;48.046;7.642;2022-12-07T08:59:19;18.03;;;12.67;;
2706;SDS011;7819;48.046;7.642;2022-12-07T09:01:45;20.30;;;10.87;;
2706;SDS011;7819;48.046;7.642;2022-12-07T09:04:10;16.33;;;10.97;;
2706;SDS011;7819;48.046;7.642;2022-12-07T09:06:36;17.40;;;12.50;;
2706;SDS011;7819;48.046;7.642;2022-12-07T09:09:01;17.40;;;12.07;;
2706;SDS011;7819;48.046;7.642;2022-12-07T09:11:27;16.03;;;12.17;;
2706;SDS011;7819;48.046;7.642;2022-12-07T09:13:52;17.83;;;12.00;;
2706;SDS011;7819;48.046;7.642;2022-12-07T09:16:17;17.93;;;12.53;;
2706;SDS011;7819;48.046;7.642;2022-12-07T09:18:43;18.13;;;11.53;;
2706;SDS011;7819;48.046;7.642;2022-12-07T09:21:08;15.70;;;11.00;;
2706;SDS011;7819;48.046;7.642;2022-12-07T09:23:34;18.10;;;13.10;;
2706;SDS011;7819;48.046;7.642;2022-12-07T09:26:01;13.47;;;9.73;;
2706;SDS011;7819;48.046;7.642;2022-12-07T09:28:26;14.13;;;10.73;;
2706;SDS011;7819;48.046;7.642;2022-12-07T09:30:51;15.60;;;10.67;;
2706;SDS011;7819;48.046;7.642;2022-12-07T09:33:16;16.60;;;9.53;;
2706;SDS011;7819;48.046;7.642;2022-12-07T09:35:45;11.70;;;8.37;;
2706;SDS011;7819;48.046;7.642;2022-12-07T09:38:10;13.97;;;9.03;;
2706;SDS011;7819;48.046;7.642;2022-12-07T09:40:36;12.70;;;9.30;;
2706;SDS011;7819;48.046;7.642;2022-12-07T09:43:01;16.60;;;10.03;;
2706;SDS011;7819;48.046;7.642;2022-12-07T09:45:31;16.83;;;10.40;;
2706;SDS011;7819;48.046;7.642;2022-12-07T09:47:58;12.80;;;9.37;;
2706;SDS011;7819;48.046;7.642;2022-12-07T09:50:24;12.70;;;9.90;;
2706;SDS011;7819;48.046;7.642;2022-12-07T09:52:50;13.60;;;9.57;;
2706;SDS011;7819;48.046;7.642;2022-12-07T09:55:19;11.93;;;8.93;;
2706;SDS011;7819;48.046;7.642;2022-12-07T09:57:47;15.53;;;10.37;;
2706;SDS011;7819;48.046;7.642;2022-12-07T10:00:14;11.83;;;9.13;;
2706;SDS011;7819;48.046;7.642;2022-12-07T10:02:41;13.97;;;9.70;;
2706;SDS011;7819;48.046;7.642;2022-12-07T10:05:07;13.67;;;10.17;;
2706;SDS011;7819;48.046;7.642;2022-12-07T10:07:35;13.83;;;9.77;;
2706;SDS011;7819;48.046;7.642;2022-12-07T10:10:04;13.70;;;9.03;;
2706;SDS011;7819;48.046;7.642;2022-12-07T10:12:32;10.50;;;9.20;;
2706;SDS011;7819;48.046;7.642;2022-12-07T10:15:16;9.23;;;7.90;;
2706;SDS011;7819;48.046;7.642;2022-12-07T10:17:47;16.30;;;12.07;;
2706;SDS011;7819;48.046;7.642;2022-12-07T10:22:38;10.57;;;7.40;;
2706;SDS011;7819;48.046;7.642;2022-12-07T10:25:37;9.97;;;7.13;;
2706;SDS011;7819;48.046;7.642;2022-12-07T10:27:57;10.73;;;7.43;;
2706;SDS011;7819;48.046;7.642;2022-12-07T10:30:23;11.77;;;8.17;;
2706;SDS011;7819;48.046;7.642;2022-12-07T10:32:48;11.53;;;8.57;;
2706;SDS011;7819;48.046;7.642;2022-12-07T10:35:24;11.37;;;7.67;;
2706;SDS011;7819;48.046;7.642;2022-12-07T10:37:50;8.27;;;6.70;;
2706;SDS011;7819;48.046;7.642;2022-12-07T10:40:35;11.67;;;7.70;;
2706;SDS011;7819;48.046;7.642;2022-12-07T10:43:01;8.00;;;6.07;;
2706;SDS011;7819;48.046;7.642;2022-12-07T10:45:27;6.67;;;5.83;;
2706;SDS011;7819;48.046;7.642;2022-12-07T10:48:27;8.50;;;7.20;;
2706;SDS011;7819;48.046;7.642;2022-12-07T10:50:48;11.30;;;10.07;;
2706;SDS011;7819;48.046;7.642;2022-12-07T11:03:53;8.67;;;6.20;;
2706;SDS011;7819;48.046;7.642;2022-12-07T11:08:54;8.93;;;6.37;;
2706;SDS011;7819;48.046;7.642;2022-12-07T11:14:48;6.50;;;5.43;;
2706;SDS011;7819;48.046;7.642;2022-12-07T11:16:49;7.03;;;5.60;;
2706;SDS011;7819;48.046;7.642;2022-12-07T11:21:49;7.80;;;5.50;;
2706;SDS011;7819;48.046;7.642;2022-12-07T11:24:24;6.67;;;5.67;;
2706;SDS011;7819;48.046;7.642;2022-12-07T11:36:42;11.10;;;7.90;;
2706;SDS011;7819;48.046;7.642;2022-12-07T11:39:12;7.00;;;5.50;;
2706;SDS011;7819;48.046;7.642;2022-12-07T11:41:40;7.80;;;6.10;;
2706;SDS011;7819;48.046;7.642;2022-12-07T11:46:49;8.53;;;6.60;;
2706;SDS011;7819;48.046;7.642;2022-12-07T11:49:21;9.27;;;7.37;;
2706;SDS011;7819;48.046;7.642;2022-12-07T11:51:51;18.70;;;12.87;;
2706;SDS011;7819;48.046;7.642;2022-12-07T11:54:27;9.60;;;6.13;;
2706;SDS011;7819;48.046;7.642;2022-12-07T11:56:53;7.43;;;5.07;;
2706;SDS011;7819;48.046;7.642;2022-12-07T11:59:23;7.13;;;5.30;;
2706;SDS011;7819;48.046;7.642;2022-12-07T12:02:11;6.83;;;6.13;;
2706;SDS011;7819;48.046;7.642;2022-12-07T12:07:10;9.47;;;7.27;;
2706;SDS011;7819;48.046;7.642;2022-12-07T12:10:14;12.63;;;8.10;;
2706;SDS011;7819;48.046;7.642;2022-12-07T12:12:40;13.70;;;9.47;;
2706;SDS011;7819;48.046;7.642;2022-12-07T12:15:18;8.43;;;6.63;;
2706;SDS011;7819;48.046;7.642;2022-12-07T12:23:01;10.40;;;6.87;;
2706;SDS011;7819;48.046;7.642;2022-12-07T12:25:52;9.50;;;6.90;;
2706;SDS011;7819;48.046;7.642;2022-12-07T12:33:34;8.13;;;6.07;;
2706;SDS011;7819;48.046;7.642;2022-12-07T12:43:58;6.37;;;4.90;;
2706;SDS011;7819;48.046;7.642;2022-12-07T12:51:41;4.77;;;3.43;;
2706;SDS011;7819;48.046;7.642;2022-12-07T12:54:56;4.77;;;3.37;;
2706;SDS011;7819;48.046;7.642;2022-12-07T12:57:06;4.07;;;3.10;;
2706;SDS011;7819;48.046;7.642;2022-12-07T12:59:38;3.70;;;3.03;;
2706;SDS011;7819;48.046;7.642;2022-12-07T13:15:41;5.67;;;4.03;;
2706;SDS011;7819;48.046;7.642;2022-12-07T13:20:59;4.17;;;3.37;;
2706;SDS011;7819;48.046;7.642;2022-12-07T13:28:35;5.30;;;3.67;;
2706;SDS011;7819;48.046;7.642;2022-12-07T13:33:34;5.80;;;3.37;;
2706;SDS011;7819;48.046;7.642;2022-12-07T13:35:59;9.10;;;6.43;;
2706;SDS011;7819;48.046;7.642;2022-12-07T13:38:27;10.87;;;5.60;;
2706;SDS011;7819;48.046;7.642;2022-12-07T13:41:03;7.07;;;4.87;;
2706;SDS011;7819;48.046;7.642;2022-12-07T13:43:28;5.20;;;3.93;;
2706;SDS011;7819;48.046;7.642;2022-12-07T13:45:57;7.60;;;5.10;;
2706;SDS011;7819;48.046;7.642;2022-12-07T13:50:58;7.30;;;4.37;;
2706;SDS011;7819;48.046;7.642;2022-12-07T13:53:24;7.77;;;4.63;;
2706;SDS011;7819;48.046;7.642;2022-12-07T13:55:49;17.43;;;10.70;;
2706;SDS011;7819;48.046;7.642;2022-12-07T13:58:15;10.70;;;7.60;;
2706;SDS011;7819;48.046;7.642;2022-12-07T14:00:40;9.10;;;4.90;;
2706;SDS011;7819;48.046;7.642;2022-12-07T14:05:37;4.50;;;3.30;;
2706;SDS011;7819;48.046;7.642;2022-12-07T14:08:04;4.70;;;3.60;;
2706;SDS011;7819;48.046;7.642;2022-12-07T14:10:34;5.87;;;3.87;;
2706;SDS011;7819;48.046;7.642;2022-12-07T14:13:00;4.00;;;3.40;;
2706;SDS011;7819;48.046;7.642;2022-12-07T14:15:29;5.57;;;4.10;;
2706;SDS011;7819;48.046;7.642;2022-12-07T14:17:56;9.47;;;8.40;;
2706;SDS011;7819;48.046;7.642;2022-12-07T14:20:28;8.23;;;7.40;;
2706;SDS011;7819;48.046;7.642;2022-12-07T14:22:54;5.33;;;4.40;;
2706;SDS011;7819;48.046;7.642;2022-12-07T14:25:21;8.40;;;4.10;;
2706;SDS011;7819;48.046;7.642;2022-12-07T14:27:51;4.53;;;3.37;;
2706;SDS011;7819;48.046;7.642;2022-12-07T14:30:17;5.03;;;3.13;;
2706;SDS011;7819;48.046;7.642;2022-12-07T14:32:43;4.07;;;3.27;;
2706;SDS011;7819;48.046;7.642;2022-12-07T14:35:13;3.90;;;2.97;;
2706;SDS011;7819;48.046;7.642;2022-12-07T14:37:39;4.73;;;3.37;;
2706;SDS011;7819;48.046;7.642;2022-12-07T14:40:05;6.23;;;3.53;;
2706;SDS011;7819;48.046;7.642;2022-12-07T14:42:31;7.93;;;3.53;;
2706;SDS011;7819;48.046;7.642;2022-12-07T14:44:57;5.20;;;3.70;;
2706;SDS011;7819;48.046;7.642;2022-12-07T14:47:22;4.53;;;3.00;;
2706;SDS011;7819;48.046;7.642;2022-12-07T14:49:48;4.90;;;2.77;;
2706;SDS011;7819;48.046;7.642;2022-12-07T14:52:14;4.33;;;3.10;;
2706;SDS011;7819;48.046;7.642;2022-12-07T14:54:40;45.60;;;16.63;;
2706;SDS011;7819;48.046;7.642;2022-12-07T14:57:07;14.73;;;7.33;;
2706;SDS011;7819;48.046;7.642;2022-12-07T14:59:33;10.30;;;5.53;;
2706;SDS011;7819;48.046;7.642;2022-12-07T15:01:58;5.00;;;3.47;;
2706;SDS011;7819;48.046;7.642;2022-12-07T15:04:23;6.57;;;3.20;;
2706;SDS011;7819;48.046;7.642;2022-12-07T15:06:55;4.47;;;3.00;;
2706;SDS011;7819;48.046;7.642;2022-12-07T15:09:21;4.47;;;2.70;;
2706;SDS011;7819;48.046;7.642;2022-12-07T15:11:46;5.40;;;4.00;;
2706;SDS011;7819;48.046;7.642;2022-12-07T15:14:11;5.10;;;3.77;;
2706;SDS011;7819;48.046;7.642;2022-12-07T15:16:38;4.97;;;3.87;;
2706;SDS011;7819;48.046;7.642;2022-12-07T15:19:04;6.53;;;4.37;;
2706;SDS011;7819;48.046;7.642;2022-12-07T15:21:30;6.63;;;3.90;;
2706;SDS011;7819;48.046;7.642;2022-12-07T15:23:55;6.17;;;3.87;;
2706;SDS011;7819;48.046;7.642;2022-12-07T15:26:20;5.03;;;4.37;;
2706;SDS011;7819;48.046;7.642;2022-12-07T15:28:46;6.47;;;4.97;;
2706;SDS011;7819;48.046;7.642;2022-12-07T15:31:14;5.30;;;4.27;;
2706;SDS011;7819;48.046;7.642;2022-12-07T15:33:40;9.10;;;5.13;;
2706;SDS011;7819;48.046;7.642;2022-12-07T15:36:05;6.40;;;4.60;;
2706;SDS011;7819;48.046;7.642;2022-12-07T15:38:30;6.43;;;4.10;;
2706;SDS011;7819;48.046;7.642;2022-12-07T15:40:56;6.40;;;3.87;;
2706;SDS011;7819;48.046;7.642;2022-12-07T15:43:21;6.50;;;3.53;;
2706;SDS011;7819;48.046;7.642;2022-12-07T15:46:05;7.83;;;3.80;;
2706;SDS011;7819;48.046;7.642;2022-12-07T15:48:30;5.50;;;4.50;;
2706;SDS011;7819;48.046;7.642;2022-12-07T15:51:08;15.83;;;11.30;;
2706;SDS011;7819;48.046;7.642;2022-12-07T15:53:34;44.70;;;27.13;;
2706;SDS011;7819;48.046;7.642;2022-12-07T15:55:59;60.53;;;38.13;;
2706;SDS011;7819;48.046;7.642;2022-12-07T15:58:24;78.93;;;53.60;;
2706;SDS011;7819;48.046;7.642;2022-12-07T16:00:50;100.63;;;80.33;;
2706;SDS011;7819;48.046;7.642;2022-12-07T16:03:15;55.87;;;50.23;;
2706;SDS011;7819;48.046;7.642;2022-12-07T16:05:40;29.57;;;26.93;;
2706;SDS011;7819;48.046;7.642;2022-12-07T16:08:05;24.90;;;22.63;;
2706;SDS011;7819;48.046;7.642;2022-12-07T16:10:30;32.87;;;29.47;;
2706;SDS011;7819;48.046;7.642;2022-12-07T16:12:56;14.30;;;12.23;;
2706;SDS011;7819;48.046;7.642;2022-12-07T16:15:21;20.70;;;18.60;;
2706;SDS011;7819;48.046;7.642;2022-12-07T16:17:46;37.83;;;34.13;;
2706;SDS011;7819;48.046;7.642;2022-12-07T16:20:11;26.77;;;23.60;;
2706;SDS011;7819;48.046;7.642;2022-12-07T16:22:36;19.00;;;15.70;;
2706;SDS011;7819;48.046;7.642;2022-12-07T16:25:02;12.87;;;11.40;;
2706;SDS011;7819;48.046;7.642;2022-12-07T16:27:27;21.77;;;19.47;;
2706;SDS011;7819;48.046;7.642;2022-12-07T16:29:52;24.90;;;22.30;;
2706;SDS011;7819;48.046;7.642;2022-12-07T16:32:17;16.63;;;12.37;;
2706;SDS011;7819;48.046;7.642;2022-12-07T16:34:43;11.77;;;8.23;;
2706;SDS011;7819;48.046;7.642;2022-12-07T16:37:08;12.40;;;9.60;;
2706;SDS011;7819;48.046;7.642;2022-12-07T16:39:33;19.97;;;12.90;;
2706;SDS011;7819;48.046;7.642;2022-12-07T16:41:59;20.10;;;14.60;;
2706;SDS011;7819;48.046;7.642;2022-12-07T16:44:24;11.30;;;7.10;;
2706;SDS011;7819;48.046;7.642;2022-12-07T16:46:50;17.00;;;10.80;;
2706;SDS011;7819;48.046;7.642;2022-12-07T16:49:15;18.07;;;11.43;;
2706;SDS011;7819;48.046;7.642;2022-12-07T16:51:40;13.60;;;8.33;;
2706;SDS011;7819;48.046;7.642;2022-12-07T16:54:08;13.13;;;9.53;;
2706;SDS011;7819;48.046;7.642;2022-12-07T16:56:34;10.07;;;8.37;;
2706;SDS011;7819;48.046;7.642;2022-12-07T16:58:59;9.60;;;7.10;;
2706;SDS011;7819;48.046;7.642;2022-12-07T17:01:24;7.60;;;5.63;;
2706;SDS011;7819;48.046;7.642;2022-12-07T17:03:52;8.57;;;6.03;;
2706;SDS011;7819;48.046;7.642;2022-12-07T17:06:19;9.97;;;6.20;;
2706;SDS011;7819;48.046;7.642;2022-12-07T17:08:44;7.40;;;5.30;;